createdAt,value
2022-09-06T00:00:13.107Z,15.93
2022-09-06T00:02:40.898Z,15.94
2022-09-06T00:05:09.090Z,15.73
2022-09-06T00:07:36.299Z,15.56
2022-09-06T00:10:04.108Z,15.62
2022-09-06T00:12:30.896Z,15.72
2022-09-06T00:14:57.581Z,15.74
2022-09-06T00:17:24.316Z,15.58
2022-09-06T00:19:51.055Z,15.58
2022-09-06T00:22:17.957Z,15.61
2022-09-06T00:24:44.721Z,15.58
2022-09-06T00:27:11.752Z,15.60
2022-09-06T00:29:38.513Z,15.63
2022-09-06T00:32:05.337Z,15.58
2022-09-06T00:34:32.172Z,15.46
2022-09-06T00:36:58.807Z,15.44
2022-09-06T00:39:25.495Z,15.47
2022-09-06T00:41:52.818Z,15.48
2022-09-06T00:44:19.803Z,15.50
2022-09-06T00:46:49.684Z,15.51
2022-09-06T00:49:25.023Z,15.60
2022-09-06T00:52:01.918Z,15.63
2022-09-06T00:54:30.702Z,15.65
2022-09-06T00:56:58.991Z,15.52
2022-09-06T00:59:29.268Z,15.46
2022-09-06T01:01:56.193Z,15.36
2022-09-06T01:04:24.286Z,15.25
2022-09-06T01:07:09.462Z,15.34
2022-09-06T01:09:55.978Z,15.26
2022-09-06T01:12:44.527Z,15.34
2022-09-06T01:15:37.921Z,15.34
2022-09-06T01:18:14.492Z,15.23
2022-09-06T01:21:00.677Z,15.05
2022-09-06T01:23:55.260Z,15.17
2022-09-06T01:26:58.998Z,15.09
2022-09-06T01:29:52.514Z,14.99
2022-09-06T01:32:52.072Z,15.05
2022-09-06T01:35:34.158Z,15.00
2022-09-06T01:38:02.077Z,15.02
2022-09-06T01:40:28.960Z,15.00
2022-09-06T01:42:58.469Z,15.08
2022-09-06T01:45:48.087Z,15.08
2022-09-06T01:48:18.713Z,15.00
2022-09-06T01:50:52.668Z,14.92
2022-09-06T01:53:44.067Z,15.02
2022-09-06T01:56:26.250Z,14.96
2022-09-06T01:59:02.070Z,14.99
2022-09-06T02:01:36.967Z,14.89
2022-09-06T02:04:18.884Z,14.87
2022-09-06T02:06:54.968Z,14.84
2022-09-06T02:09:25.233Z,14.87
2022-09-06T02:11:56.479Z,14.99
2022-09-06T02:14:32.199Z,15.01
2022-09-06T02:17:01.228Z,15.00
2022-09-06T02:19:36.015Z,15.02
2022-09-06T02:22:06.615Z,15.05
2022-09-06T02:24:37.580Z,14.99
2022-09-06T02:27:04.847Z,14.96
2022-09-06T02:29:31.596Z,14.96
2022-09-06T02:32:08.854Z,15.00
2022-09-06T02:34:46.195Z,14.92
2022-09-06T02:37:14.081Z,14.96
2022-09-06T02:39:40.980Z,14.93
2022-09-06T02:42:10.711Z,15.05
2022-09-06T02:44:37.627Z,15.05
2022-09-06T02:47:04.528Z,14.98
2022-09-06T02:49:31.187Z,15.01
2022-09-06T02:51:58.280Z,14.98
2022-09-06T02:54:26.094Z,15.03
2022-09-06T02:56:52.881Z,14.87
2022-09-06T02:59:19.572Z,14.78
2022-09-06T03:01:46.231Z,14.80
2022-09-06T03:04:13.048Z,14.64
2022-09-06T03:06:39.950Z,14.58
2022-09-06T03:09:06.731Z,14.48
2022-09-06T03:11:33.842Z,14.46
2022-09-06T03:14:00.399Z,14.31
2022-09-06T03:16:27.153Z,14.34
2022-09-06T03:18:53.940Z,14.29
2022-09-06T03:21:20.539Z,14.27
2022-09-06T03:23:47.472Z,14.24
2022-09-06T03:26:14.131Z,14.24
2022-09-06T03:28:41.044Z,14.24
2022-09-06T03:31:07.848Z,14.22
2022-09-06T03:33:34.587Z,14.15
2022-09-06T03:36:01.865Z,14.11
2022-09-06T03:38:29.516Z,14.15
2022-09-06T03:40:56.793Z,14.15
2022-09-06T03:43:25.171Z,14.24
2022-09-06T03:45:54.885Z,14.23
2022-09-06T03:48:24.193Z,14.19
2022-09-06T03:50:54.583Z,14.21
2022-09-06T03:53:23.005Z,14.24
2022-09-06T03:55:51.920Z,14.19
2022-09-06T03:58:20.661Z,14.16
2022-09-06T04:00:47.702Z,14.19
2022-09-06T04:03:15.119Z,14.29
2022-09-06T04:05:46.629Z,14.41
2022-09-06T04:08:14.442Z,14.41
2022-09-06T04:10:41.112Z,14.54
2022-09-06T04:13:08.059Z,14.66
2022-09-06T04:15:37.276Z,14.76
2022-09-06T04:18:09.033Z,14.87
2022-09-06T04:20:36.006Z,14.80
2022-09-06T04:23:02.682Z,14.75
2022-09-06T04:25:29.300Z,14.72
2022-09-06T04:27:55.988Z,14.72
2022-09-06T04:30:22.848Z,14.67
2022-09-06T04:32:49.479Z,14.71
2022-09-06T04:35:16.373Z,14.73
2022-09-06T04:37:44.063Z,14.74
2022-09-06T04:40:11.202Z,14.74
2022-09-06T04:42:37.964Z,14.72
2022-09-06T04:45:06.048Z,14.73
2022-09-06T04:47:33.056Z,14.77
2022-09-06T04:49:59.656Z,14.80
2022-09-06T04:52:30.041Z,14.80
2022-09-06T04:54:57.268Z,14.83
2022-09-06T04:57:23.959Z,14.80
2022-09-06T04:59:50.592Z,14.85
2022-09-06T05:02:17.220Z,14.87
2022-09-06T05:04:44.024Z,14.88
2022-09-06T05:07:10.764Z,14.87
2022-09-06T05:09:37.793Z,14.89
2022-09-06T05:12:06.039Z,14.88
2022-09-06T05:14:32.745Z,14.94
2022-09-06T05:16:59.473Z,14.94
2022-09-06T05:19:26.117Z,14.99
2022-09-06T05:21:52.769Z,15.01
2022-09-06T05:24:19.532Z,15.04
2022-09-06T05:26:46.315Z,15.09
2022-09-06T05:29:13.141Z,15.16
2022-09-06T05:31:40.086Z,15.20
2022-09-06T05:34:06.729Z,15.25
2022-09-06T05:36:33.381Z,15.41
2022-09-06T05:39:00.512Z,15.68
2022-09-06T05:41:27.760Z,16.15
2022-09-06T05:43:54.698Z,16.72
2022-09-06T05:46:21.978Z,17.19
2022-09-06T05:48:53.436Z,17.54
2022-09-06T05:51:20.857Z,17.70
2022-09-06T05:53:49.863Z,18.01
2022-09-06T05:56:17.139Z,18.09
2022-09-06T05:58:43.917Z,18.37
2022-09-06T06:01:21.573Z,18.52
2022-09-06T06:03:55.876Z,18.36
2022-09-06T06:06:23.691Z,18.83
2022-09-06T06:08:50.635Z,19.06
2022-09-06T06:11:18.458Z,19.14
2022-09-06T06:13:45.698Z,19.38
2022-09-06T06:16:15.727Z,19.45
2022-09-06T06:18:42.845Z,19.61
2022-09-06T06:21:19.550Z,19.73
2022-09-06T06:23:47.754Z,20.05
2022-09-06T06:26:14.598Z,20.07
2022-09-06T06:28:42.338Z,20.26
2022-09-06T06:31:11.060Z,20.35
2022-09-06T06:33:38.851Z,20.57
2022-09-06T06:36:08.269Z,20.67
2022-09-06T06:38:37.585Z,20.83
2022-09-06T06:41:06.956Z,20.94
2022-09-06T06:43:36.506Z,20.98
2022-09-06T06:46:09.981Z,20.89
2022-09-06T06:48:41.928Z,20.25
2022-09-06T06:51:09.563Z,19.85
2022-09-06T06:53:36.619Z,19.61
2022-09-06T06:56:42.541Z,19.31
2022-09-06T06:59:10.382Z,19.25
2022-09-06T07:01:38.458Z,19.21
2022-09-06T07:04:06.070Z,19.17
2022-09-06T07:12:25.737Z,18.91
2022-09-06T07:14:53.806Z,18.89
2022-09-06T07:17:20.483Z,18.99
2022-09-06T07:22:33.748Z,19.05
2022-09-06T07:25:01.774Z,19.02
2022-09-06T07:30:15.851Z,19.09
2022-09-06T07:32:42.936Z,19.11
2022-09-06T07:35:09.785Z,19.03
2022-09-06T07:37:36.774Z,19.07
2022-09-06T07:40:04.836Z,19.11
2022-09-06T07:42:36.393Z,19.10
2022-09-06T07:45:04.861Z,19.17
2022-09-06T07:53:11.894Z,19.17
2022-09-06T07:55:42.625Z,19.20
2022-09-06T07:58:09.278Z,19.14
2022-09-06T08:00:42.545Z,19.23
2022-09-06T08:03:09.924Z,19.27
2022-09-06T08:11:10.099Z,19.32
2022-09-06T08:13:37.518Z,19.31
2022-09-06T08:16:07.287Z,19.38
2022-09-06T08:18:36.948Z,19.50
2022-09-06T08:21:13.113Z,19.59
2022-09-06T08:23:51.239Z,19.64
2022-09-06T08:26:20.990Z,19.71
2022-09-06T08:28:47.790Z,19.81
2022-09-06T08:31:17.229Z,19.94
2022-09-06T08:33:48.022Z,20.10
2022-09-06T08:36:19.289Z,20.07
2022-09-06T08:38:46.208Z,20.13
2022-09-06T08:41:17.106Z,20.26
2022-09-06T08:47:02.654Z,20.38
2022-09-06T08:49:55.258Z,20.49
2022-09-06T08:52:49.419Z,20.53
2022-09-06T08:55:24.431Z,20.65
2022-09-06T08:58:08.826Z,20.72
2022-09-06T09:00:38.621Z,20.70
2022-09-06T09:03:25.468Z,20.75
2022-09-06T09:05:53.852Z,20.74
2022-09-06T09:08:41.373Z,20.67
2022-09-06T09:11:13.900Z,20.52
2022-09-06T09:14:06.252Z,20.65
2022-09-06T09:16:34.226Z,20.70
2022-09-06T09:19:04.103Z,20.82
2022-09-06T09:21:36.636Z,20.96
2022-09-06T09:24:11.929Z,21.00
2022-09-06T09:26:59.445Z,21.06
2022-09-06T09:29:29.479Z,21.24
2022-09-06T09:34:34.203Z,21.48
2022-09-06T09:37:45.998Z,21.55
2022-09-06T09:40:18.068Z,21.62
2022-09-06T09:42:44.775Z,21.59
2022-09-06T09:45:20.308Z,21.76
2022-09-06T09:47:47.968Z,21.96
2022-09-06T09:50:35.410Z,22.12
2022-09-06T09:53:11.566Z,22.21
2022-09-06T09:55:39.223Z,22.39
2022-09-06T09:58:17.426Z,22.47
2022-09-06T10:00:44.327Z,22.37
2022-09-06T10:03:20.143Z,22.44
2022-09-06T10:06:03.366Z,22.53
2022-09-06T10:08:33.997Z,22.62
2022-09-06T10:11:01.055Z,22.76
2022-09-06T10:13:30.470Z,22.79
2022-09-06T10:16:03.410Z,22.81
2022-09-06T10:18:41.980Z,22.70
2022-09-06T10:21:19.084Z,22.80
2022-09-06T10:26:56.433Z,22.98
2022-09-06T10:29:29.326Z,23.18
2022-09-06T10:32:30.459Z,23.34
2022-09-06T10:35:14.900Z,23.29
2022-09-06T10:37:48.972Z,23.51
2022-09-06T10:40:33.526Z,23.55
2022-09-06T10:43:01.760Z,23.49
2022-09-06T10:45:29.525Z,23.54
2022-09-06T10:48:02.657Z,23.60
2022-09-06T10:50:46.149Z,23.79
2022-09-06T10:53:21.899Z,23.74
2022-09-06T10:56:00.889Z,23.82
2022-09-06T11:01:29.139Z,23.79
2022-09-06T11:04:04.347Z,23.84
2022-09-06T11:06:44.553Z,23.92
2022-09-06T11:09:38.675Z,24.03
2022-09-06T11:12:42.771Z,24.03
2022-09-06T11:15:13.453Z,24.13
2022-09-06T11:17:53.271Z,24.17
2022-09-06T11:20:35.060Z,24.19
2022-09-06T11:23:32.642Z,24.22
2022-09-06T11:26:05.185Z,24.40
2022-09-06T11:28:47.498Z,24.47
2022-09-06T11:34:34.885Z,24.49
2022-09-06T11:37:05.083Z,24.56
2022-09-06T11:42:41.851Z,24.61
2022-09-06T11:45:08.629Z,24.62
2022-09-06T11:47:45.610Z,24.84
2022-09-06T11:50:21.558Z,24.89
2022-09-06T11:53:00.576Z,25.07
2022-09-06T11:55:38.182Z,24.98
2022-09-06T11:58:19.240Z,24.84
2022-09-06T12:01:07.172Z,24.91
2022-09-06T12:06:31.811Z,25.05
2022-09-06T12:09:00.539Z,25.12
2022-09-06T12:11:42.692Z,24.79
2022-09-06T12:14:31.361Z,25.24
2022-09-06T12:16:58.116Z,25.43
2022-09-06T12:19:44.689Z,25.79
2022-09-06T12:22:26.755Z,25.16
2022-09-06T12:24:54.954Z,25.28
2022-09-06T12:27:23.230Z,25.65
2022-09-06T12:30:01.073Z,25.81
2022-09-06T12:32:37.225Z,25.77
2022-09-06T12:38:16.023Z,26.04
2022-09-06T12:40:49.528Z,25.85
2022-09-06T12:43:18.234Z,26.10
2022-09-06T12:45:47.016Z,26.85
2022-09-06T12:48:33.600Z,26.83
2022-09-06T12:51:08.220Z,25.99
2022-09-06T12:53:35.102Z,26.28
2022-09-06T12:56:12.662Z,26.47
2022-09-06T12:58:39.825Z,26.16
2022-09-06T13:01:15.700Z,26.21
2022-09-06T13:03:56.468Z,26.22
2022-09-06T13:06:27.393Z,26.36
2022-09-06T13:08:57.201Z,26.56
2022-09-06T13:11:35.516Z,26.82
2022-09-06T13:14:14.016Z,26.95
2022-09-06T13:16:47.806Z,26.64
2022-09-06T13:19:19.607Z,26.11
2022-09-06T13:21:46.976Z,26.06
2022-09-06T13:24:43.381Z,26.15
2022-09-06T13:27:24.762Z,26.48
2022-09-06T13:30:10.565Z,26.65
2022-09-06T13:32:47.576Z,26.43
2022-09-06T13:35:24.196Z,26.38
2022-09-06T13:37:51.039Z,26.25
2022-09-06T13:40:59.853Z,26.34
2022-09-06T13:43:28.156Z,26.49
2022-09-06T13:46:09.900Z,26.68
2022-09-06T13:48:36.897Z,26.95
2022-09-06T13:51:05.811Z,27.07
2022-09-06T13:53:33.248Z,27.19
2022-09-06T13:55:59.934Z,27.15
2022-09-06T13:58:28.326Z,27.11
2022-09-06T14:00:55.183Z,27.26
2022-09-06T14:03:29.192Z,27.01
2022-09-06T14:05:55.957Z,26.78
2022-09-06T14:08:23.176Z,26.82
2022-09-06T14:10:51.591Z,26.96
2022-09-06T14:13:19.319Z,27.00
2022-09-06T14:15:47.712Z,26.96
2022-09-06T14:18:15.469Z,27.09
2022-09-06T14:20:42.764Z,26.45
2022-09-06T14:23:09.721Z,26.44
2022-09-06T14:25:38.739Z,26.43
2022-09-06T14:28:05.751Z,26.56
2022-09-06T14:30:32.665Z,26.35
2022-09-06T14:32:59.495Z,26.34
2022-09-06T14:35:27.744Z,26.68
2022-09-06T14:37:54.375Z,27.04
2022-09-06T14:40:21.081Z,26.63
2022-09-06T14:42:50.529Z,26.80
2022-09-06T14:45:17.787Z,27.15
2022-09-06T14:47:44.561Z,27.35
2022-09-06T14:50:11.278Z,27.45
2022-09-06T14:52:38.129Z,27.60
2022-09-06T14:55:05.418Z,26.58
2022-09-06T14:57:32.241Z,26.56
2022-09-06T14:59:59.290Z,26.72
2022-09-06T15:02:29.072Z,26.70
2022-09-06T15:04:56.187Z,26.73
2022-09-06T15:07:22.888Z,26.67
2022-09-06T15:09:51.140Z,26.72
2022-09-06T15:12:18.227Z,26.46
2022-09-06T15:14:45.013Z,26.54
2022-09-06T15:17:11.952Z,26.67
2022-09-06T15:19:38.947Z,26.31
2022-09-06T15:22:07.266Z,26.45
2022-09-06T15:24:34.309Z,26.20
2022-09-06T15:27:02.243Z,26.77
2022-09-06T15:29:29.120Z,27.26
2022-09-06T15:31:56.219Z,27.52
2022-09-06T15:34:25.493Z,27.25
2022-09-06T15:36:53.513Z,27.06
2022-09-06T15:39:20.762Z,26.66
2022-09-06T15:41:50.056Z,26.52
2022-09-06T15:44:19.322Z,26.48
2022-09-06T15:47:00.899Z,26.38
2022-09-06T15:49:31.786Z,26.32
2022-09-06T15:52:01.059Z,26.24
2022-09-06T15:54:47.839Z,26.67
2022-09-06T15:57:16.614Z,26.75
2022-09-06T15:59:44.131Z,26.40
2022-09-06T16:02:13.128Z,26.39
2022-09-06T16:04:40.026Z,26.43
2022-09-06T16:07:07.345Z,26.35
2022-09-06T16:09:34.470Z,25.92
2022-09-06T16:12:01.150Z,25.80
2022-09-06T16:14:29.240Z,25.82
2022-09-06T16:16:57.518Z,25.45
2022-09-06T16:19:26.017Z,25.41
2022-09-06T16:21:52.949Z,25.42
2022-09-06T16:24:19.696Z,25.29
2022-09-06T16:26:46.982Z,25.03
2022-09-06T16:29:16.543Z,25.05
2022-09-06T16:31:43.474Z,24.99
2022-09-06T16:34:11.992Z,24.94
2022-09-06T16:36:39.215Z,24.92
2022-09-06T16:39:07.529Z,25.02
2022-09-06T16:41:40.647Z,24.90
2022-09-06T16:44:09.276Z,24.85
2022-09-06T16:46:40.260Z,24.88
2022-09-06T16:49:07.176Z,24.89
2022-09-06T16:51:33.995Z,24.90
2022-09-06T16:54:01.371Z,24.82
2022-09-06T16:56:33.570Z,24.72
2022-09-06T16:59:03.480Z,24.76
2022-09-06T17:01:32.438Z,24.62
2022-09-06T17:04:02.331Z,24.73
2022-09-06T17:06:30.206Z,24.57
2022-09-06T17:09:00.760Z,24.27
2022-09-06T17:11:28.539Z,24.29
2022-09-06T17:13:56.593Z,24.33
2022-09-06T17:16:42.176Z,24.33
2022-09-06T17:19:09.366Z,24.25
2022-09-06T17:21:36.245Z,24.27
2022-09-06T17:24:04.784Z,24.19
2022-09-06T17:26:34.210Z,24.18
2022-09-06T17:29:01.409Z,24.17
2022-09-06T17:31:28.782Z,24.10
2022-09-06T17:33:55.701Z,23.89
2022-09-06T17:36:29.884Z,23.60
2022-09-06T17:39:07.482Z,23.38
2022-09-06T17:41:43.325Z,23.19
2022-09-06T17:44:11.719Z,23.07
2022-09-06T17:46:47.602Z,23.02
2022-09-06T17:49:18.898Z,22.96
2022-09-06T17:51:47.535Z,22.95
2022-09-06T17:54:15.167Z,22.99
2022-09-06T17:56:41.899Z,22.59
2022-09-06T17:59:11.147Z,22.00
2022-09-06T18:01:38.715Z,21.71
2022-09-06T18:04:06.346Z,21.39
2022-09-06T18:06:34.365Z,20.93
2022-09-06T18:09:14.780Z,20.78
2022-09-06T18:11:42.080Z,20.38
2022-09-06T18:14:11.725Z,20.23
2022-09-06T18:16:40.607Z,19.96
2022-09-06T18:19:08.634Z,19.77
2022-09-06T18:21:38.057Z,19.79
2022-09-06T18:24:05.504Z,19.61
2022-09-06T18:26:33.314Z,19.16
2022-09-06T18:29:02.811Z,18.90
2022-09-06T18:31:29.635Z,18.75
2022-09-06T18:33:59.157Z,18.69
2022-09-06T18:36:31.132Z,18.84
2022-09-06T18:39:02.622Z,19.14
2022-09-06T18:41:55.698Z,19.25
2022-09-06T18:44:22.600Z,19.21
2022-09-06T18:46:49.993Z,18.97
2022-09-06T18:49:17.632Z,18.31
2022-09-06T18:51:45.737Z,18.41
2022-09-06T18:54:12.458Z,18.43
2022-09-06T18:56:39.117Z,18.56
2022-09-06T18:59:06.912Z,18.47
2022-09-06T19:01:35.327Z,18.56
2022-09-06T19:04:05.220Z,18.58
2022-09-06T19:06:33.415Z,18.60
2022-09-06T19:09:03.229Z,18.62
2022-09-06T19:11:30.256Z,18.62
2022-09-06T19:13:57.752Z,18.62
2022-09-06T19:16:26.410Z,18.56
2022-09-06T19:18:56.081Z,18.69
2022-09-06T19:21:25.720Z,18.87
2022-09-06T19:24:01.493Z,19.08
2022-09-06T19:26:31.657Z,19.17
2022-09-06T19:29:00.966Z,19.27
2022-09-06T19:31:33.908Z,19.38
2022-09-06T19:34:00.905Z,19.29
2022-09-06T19:36:28.949Z,19.28
2022-09-06T19:39:04.132Z,19.38
2022-09-06T19:41:33.301Z,19.59
2022-09-06T19:44:00.577Z,19.77
2022-09-06T19:46:27.953Z,19.95
2022-09-06T19:48:58.430Z,20.13
2022-09-06T19:51:25.140Z,20.27
2022-09-06T19:54:00.173Z,20.43
2022-09-06T19:56:31.968Z,20.49
2022-09-06T19:59:01.028Z,20.58
2022-09-06T20:01:31.185Z,20.77
2022-09-06T20:03:58.809Z,20.82
2022-09-06T20:06:26.870Z,20.81
2022-09-06T20:08:55.552Z,20.86
2022-09-06T20:11:24.905Z,20.94
2022-09-06T20:13:52.188Z,20.91
2022-09-06T20:16:21.221Z,20.97
2022-09-06T20:18:48.621Z,20.90
2022-09-06T20:21:17.839Z,20.91
2022-09-06T20:23:51.184Z,20.90
2022-09-06T20:26:18.597Z,20.88
2022-09-06T20:28:46.097Z,20.77
2022-09-06T20:31:17.666Z,20.73
2022-09-06T20:33:49.502Z,20.73
2022-09-06T20:36:17.656Z,20.71
2022-09-06T20:38:46.265Z,20.67
2022-09-06T20:41:14.129Z,20.70
2022-09-06T20:43:41.805Z,20.60
2022-09-06T20:46:13.155Z,20.56
2022-09-06T20:48:44.438Z,20.55
2022-09-06T20:51:15.917Z,20.44
2022-09-06T20:53:43.089Z,20.49
2022-09-06T20:56:15.457Z,20.38
2022-09-06T20:58:42.796Z,20.31
2022-09-06T21:01:19.663Z,20.37
2022-09-06T21:03:46.503Z,20.24
2022-09-06T21:06:13.452Z,20.19
2022-09-06T21:08:42.869Z,19.97
2022-09-06T21:11:10.818Z,19.84
2022-09-06T21:13:38.110Z,19.84
2022-09-06T21:16:06.150Z,19.72
2022-09-06T21:18:34.038Z,19.76
2022-09-06T21:21:08.364Z,19.65
2022-09-06T21:23:37.194Z,19.62
2022-09-06T21:26:07.970Z,19.58
2022-09-06T21:28:36.759Z,19.39
2022-09-06T21:31:23.313Z,19.32
2022-09-06T21:33:59.106Z,19.24
2022-09-06T21:36:31.193Z,19.03
2022-09-06T21:39:00.110Z,19.08
2022-09-06T21:41:27.499Z,17.86
2022-09-06T21:43:56.298Z,16.91
2022-09-06T21:46:30.301Z,16.58
2022-09-06T21:49:01.738Z,16.33
2022-09-06T21:51:28.603Z,16.04
2022-09-06T21:53:57.129Z,16.02
2022-09-06T21:56:25.017Z,15.95
2022-09-06T21:58:56.935Z,15.91
2022-09-06T22:01:25.068Z,15.82
2022-09-06T22:03:52.259Z,15.79
2022-09-06T22:06:22.565Z,15.67
2022-09-06T22:08:49.811Z,15.71
2022-09-06T22:11:19.344Z,15.76
2022-09-06T22:13:48.305Z,15.66
2022-09-06T22:16:18.457Z,15.69
2022-09-06T22:18:45.745Z,15.62
2022-09-06T22:21:20.339Z,15.64
2022-09-06T22:23:51.157Z,15.57
2022-09-06T22:26:18.679Z,15.66
2022-09-06T22:28:46.365Z,15.66
2022-09-06T22:31:13.354Z,15.74
2022-09-06T22:33:40.079Z,15.73
2022-09-06T22:36:07.571Z,15.66
2022-09-06T22:38:34.945Z,15.75
2022-09-06T22:41:01.703Z,15.71
2022-09-06T22:43:28.438Z,15.72
2022-09-06T22:46:02.277Z,15.76
2022-09-06T22:48:29.082Z,15.65
2022-09-06T22:50:56.041Z,15.69
2022-09-06T22:53:23.037Z,15.63
2022-09-06T22:55:49.726Z,15.54
2022-09-06T22:58:16.544Z,15.31
2022-09-06T23:00:43.408Z,15.11
2022-09-06T23:03:10.467Z,15.19
2022-09-06T23:05:37.095Z,15.16
2022-09-06T23:08:04.416Z,15.26
2022-09-06T23:10:32.216Z,15.28
2022-09-06T23:12:59.299Z,15.22
2022-09-06T23:15:26.420Z,15.22
2022-09-06T23:17:53.428Z,15.34
2022-09-06T23:20:20.312Z,15.24
2022-09-06T23:22:48.239Z,15.18
2022-09-06T23:25:14.998Z,15.17
2022-09-06T23:27:41.735Z,14.92
2022-09-06T23:30:09.170Z,14.94
2022-09-06T23:32:35.818Z,14.98
2022-09-06T23:35:02.618Z,15.00
2022-09-06T23:37:29.432Z,15.03
2022-09-06T23:39:56.181Z,15.07
2022-09-06T23:42:23.143Z,14.96
2022-09-06T23:44:54.400Z,14.94
2022-09-06T23:47:21.086Z,14.96
2022-09-06T23:49:47.769Z,14.98
2022-09-06T23:52:14.459Z,14.92
2022-09-06T23:54:41.203Z,14.89
2022-09-06T23:57:07.966Z,14.86
2022-09-06T23:59:35.012Z,14.87
